createdAt,value
2022-08-11T00:00:02.594Z,22.45
2022-08-11T00:07:02.189Z,22.45
2022-08-11T00:14:02.095Z,22.4
2022-08-11T00:21:01.916Z,22.4
2022-08-11T00:28:01.866Z,22.19
2022-08-11T00:35:51.272Z,22.19
2022-08-11T00:42:01.749Z,22.13
2022-08-11T00:49:01.550Z,22.13
2022-08-11T00:56:01.824Z,21.87
2022-08-11T01:00:03.806Z,21.87
2022-08-11T01:07:01.852Z,21.86
2022-08-11T01:14:01.721Z,21.86
2022-08-11T01:21:01.430Z,21.76
2022-08-11T01:28:02.297Z,21.59
2022-08-11T01:35:01.739Z,21.59
2022-08-11T01:42:02.149Z,21.31
2022-08-11T01:49:01.420Z,21.31
2022-08-11T01:56:01.362Z,21.36
2022-08-11T02:00:02.466Z,21.36
2022-08-11T02:07:02.166Z,21.27
2022-08-11T02:14:02.307Z,21.27
2022-08-11T02:21:02.124Z,21.24
2022-08-11T02:28:01.457Z,21.24
2022-08-11T02:35:01.642Z,21.18
2022-08-11T02:42:02.595Z,21.18
2022-08-11T02:49:02.196Z,21
2022-08-11T02:56:01.372Z,21
2022-08-11T03:00:02.023Z,20.92
2022-08-11T03:07:01.796Z,20.92
2022-08-11T03:14:01.569Z,20.77
2022-08-11T03:21:02.146Z,20.77
2022-08-11T03:28:02.705Z,20.51
2022-08-11T03:35:02.152Z,20.51
2022-08-11T03:42:05.938Z,20.54
2022-08-11T03:49:01.586Z,20.39
2022-08-11T03:56:02.319Z,20.39
2022-08-11T04:00:01.948Z,20.39
2022-08-11T04:07:02.160Z,20.42
2022-08-11T04:14:01.352Z,20.42
2022-08-11T04:21:01.864Z,20.33
2022-08-11T04:28:01.722Z,20.27
2022-08-11T04:35:01.835Z,20.27
2022-08-11T04:42:01.524Z,20.18
2022-08-11T04:49:02.035Z,20.18
2022-08-11T04:56:01.641Z,20.14
2022-08-11T05:00:02.287Z,20.14
2022-08-11T05:07:02.086Z,20.15
2022-08-11T05:14:01.664Z,20.15
2022-08-11T05:21:04.881Z,20.06
2022-08-11T05:28:01.616Z,20.06
2022-08-11T05:35:02.035Z,20.14
2022-08-11T05:42:02.017Z,20.14
2022-08-11T05:49:01.830Z,20.21
2022-08-11T05:56:02.851Z,20.21
2022-08-11T06:00:02.067Z,20.33
2022-08-11T06:07:01.638Z,20.33
2022-08-11T06:14:02.308Z,20.47
2022-08-11T06:21:02.015Z,20.47
2022-08-11T06:28:01.918Z,20.59
2022-08-11T06:35:02.596Z,20.59
2022-08-11T06:42:02.206Z,20.76
2022-08-11T06:49:02.088Z,20.76
2022-08-11T06:56:02.069Z,20.89
2022-08-11T07:00:01.648Z,20.89
2022-08-11T07:07:02.079Z,21.21
2022-08-11T07:14:01.980Z,21.21
2022-08-11T07:21:02.541Z,21.44
2022-08-11T07:28:01.734Z,21.78
2022-08-11T07:35:02.261Z,21.78
2022-08-11T07:42:02.353Z,21.97
2022-08-11T07:49:01.504Z,21.97
2022-08-11T07:56:02.333Z,22.17
2022-08-11T08:00:04.583Z,22.17
2022-08-11T08:07:02.302Z,22.31
2022-08-11T08:14:01.917Z,22.31
2022-08-11T08:21:02.246Z,22.41
2022-08-11T08:28:01.640Z,22.41
2022-08-11T08:35:02.232Z,22.72
2022-08-11T08:42:01.666Z,22.72
2022-08-11T08:49:01.507Z,22.89
2022-08-11T08:56:01.990Z,22.89
2022-08-11T09:00:01.518Z,23.13
2022-08-11T09:07:01.520Z,23.13
2022-08-11T09:14:03.274Z,23.35
2022-08-11T09:21:01.899Z,23.35
2022-08-11T09:28:01.993Z,23.71
2022-08-11T09:35:02.453Z,23.71
2022-08-11T09:42:03.449Z,24.05
2022-08-11T09:49:01.957Z,24.05
2022-08-11T09:56:01.676Z,24.25
2022-08-11T10:00:12.467Z,24.25
2022-08-11T10:07:04.620Z,24.58
2022-08-11T10:14:34.063Z,24.58
2022-08-11T10:21:01.766Z,24.77
2022-08-11T10:28:17.629Z,25.02
2022-08-11T10:35:02.077Z,25.02
2022-08-11T10:42:07.730Z,25.07
2022-08-11T10:49:01.735Z,25.07
2022-08-11T10:56:01.894Z,25.35
2022-08-11T11:00:02.685Z,25.35
2022-08-11T11:07:01.854Z,25.47
2022-08-11T11:14:01.987Z,25.47
2022-08-11T11:21:01.910Z,25.69
2022-08-11T11:28:01.471Z,25.69
2022-08-11T11:35:01.909Z,25.87
2022-08-11T11:42:02.132Z,25.87
2022-08-11T11:49:01.839Z,25.83
2022-08-11T11:56:01.671Z,25.83
2022-08-11T12:00:02.230Z,25.81
2022-08-11T12:07:01.945Z,25.81
2022-08-11T12:14:01.562Z,25.97
2022-08-11T12:21:02.036Z,25.97
2022-08-11T12:28:01.662Z,26.06
2022-08-11T12:35:01.836Z,26.06
2022-08-11T12:42:02.292Z,26.09
2022-08-11T12:49:02.932Z,26.09
2022-08-11T12:56:07.876Z,26.1
2022-08-11T13:00:01.584Z,26.1
2022-08-11T13:07:01.674Z,26.13
2022-08-11T13:14:02.180Z,26.13
2022-08-11T13:21:02.097Z,26.07
2022-08-11T13:28:02.065Z,26.07
2022-08-11T13:35:02.102Z,26.2
2022-08-11T13:42:01.693Z,26.33
2022-08-11T13:49:02.300Z,26.33
2022-08-11T13:56:01.758Z,26.4
2022-08-11T14:00:02.257Z,26.4
2022-08-11T14:07:01.565Z,26.75
2022-08-11T14:14:02.265Z,26.75
2022-08-11T14:21:01.737Z,26.62
2022-08-11T14:28:30.610Z,26.62
2022-08-11T14:35:02.140Z,26.55
2022-08-11T14:42:11.594Z,26.55
2022-08-11T14:49:01.731Z,26.7
2022-08-11T14:56:01.466Z,26.7
2022-08-11T15:00:02.089Z,26.7
2022-08-11T15:07:02.298Z,26.7
2022-08-11T15:14:01.882Z,26.89
2022-08-11T15:21:01.796Z,26.89
2022-08-11T15:28:02.206Z,26.9
2022-08-11T15:35:03.648Z,26.9
2022-08-11T15:42:02.307Z,26.68
2022-08-11T15:49:01.691Z,26.68
2022-08-11T15:56:02.261Z,26.42
2022-08-11T16:00:01.986Z,26.42
2022-08-11T16:07:01.871Z,26.77
2022-08-11T16:14:02.314Z,26.77
2022-08-11T16:21:02.294Z,26.98
2022-08-11T16:28:01.996Z,26.98
2022-08-11T16:35:02.309Z,26.8
2022-08-11T16:42:01.680Z,26.88
2022-08-11T16:49:01.908Z,26.88
2022-08-11T16:56:02.311Z,26.8
2022-08-11T17:00:01.915Z,26.8
2022-08-11T17:07:02.123Z,26.84
2022-08-11T17:14:01.386Z,26.84
2022-08-11T17:21:01.935Z,26.48
2022-08-11T17:28:02.198Z,26.48
2022-08-11T17:35:01.910Z,26.53
2022-08-11T17:42:02.295Z,26.53
2022-08-11T17:49:01.367Z,26.47
2022-08-11T17:56:01.664Z,26.47
2022-08-11T18:00:02.275Z,26.35
2022-08-11T18:07:01.889Z,26.35
2022-08-11T18:14:01.964Z,26.19
2022-08-11T18:21:02.266Z,26.19
2022-08-11T18:28:02.017Z,26.11
2022-08-11T18:35:02.333Z,26.11
2022-08-11T18:42:02.324Z,26.11
2022-08-11T18:49:02.269Z,26.11
2022-08-11T18:56:01.903Z,25.9
2022-08-11T19:00:02.424Z,25.9
2022-08-11T19:07:02.190Z,25.76
2022-08-11T19:14:01.483Z,25.76
2022-08-11T19:21:01.759Z,25.57
2022-08-11T19:28:01.653Z,25.57
2022-08-11T19:35:01.618Z,25.47
2022-08-11T19:42:02.300Z,25.29
2022-08-11T19:49:02.124Z,25.29
2022-08-11T19:56:01.689Z,25.16
2022-08-11T20:00:02.291Z,25.16
2022-08-11T20:07:02.083Z,25.16
2022-08-11T20:14:02.307Z,25.14
2022-08-11T20:21:01.907Z,24.97
2022-08-11T20:28:01.762Z,24.97
2022-08-11T20:35:02.232Z,24.92
2022-08-11T20:42:01.391Z,24.92
2022-08-11T20:49:01.830Z,24.75
2022-08-11T20:56:01.843Z,24.75
2022-08-11T21:00:02.500Z,24.65
2022-08-11T21:07:02.052Z,24.65
2022-08-11T21:14:02.224Z,24.7
2022-08-11T21:21:02.270Z,24.7
2022-08-11T21:28:01.512Z,24.57
2022-08-11T21:35:01.885Z,24.57
2022-08-11T21:42:02.378Z,24.5
2022-08-11T21:49:01.592Z,24.5
2022-08-11T21:56:02.270Z,24.36
2022-08-11T22:00:01.954Z,24.36
2022-08-11T22:07:01.862Z,24.4
2022-08-11T22:14:08.067Z,24.4
2022-08-11T22:21:02.091Z,24.35
2022-08-11T22:28:01.769Z,24.35
2022-08-11T22:35:01.651Z,24.31
2022-08-11T22:42:01.615Z,24.23
2022-08-11T22:49:02.011Z,24.23
2022-08-11T22:56:01.409Z,24.19
2022-08-11T23:00:02.013Z,24.19
2022-08-11T23:07:01.963Z,24.19
2022-08-11T23:14:02.333Z,24
2022-08-11T23:21:01.337Z,23.86
2022-08-11T23:28:01.670Z,23.86
2022-08-11T23:35:04.955Z,23.7
2022-08-11T23:42:01.715Z,23.7
2022-08-11T23:49:01.900Z,23.52
2022-08-11T23:56:01.519Z,23.52
